Forside
METAR-TAF:

METAR-TAF

Lufthavne :

London City Airport

London, England

Breddekreds: 51-30N, længdekreds: 000-03E, højde: 5 m

Aktuelle vejr

Denne rapport blev lavet for 20 minutter siden, kl. 02:50 UTC
Vind stille
Temperatur 14°C
Fugtighed 72%
Tryk 1034 hPa
Sigt 10 km eller mere

METAR: EGLC 250250Z AUTO 00000KT 9999 NCD 14/09 Q1034

Tid: 04:10 (03:10 UTC)

Vejrudsigter

Denne rapport blev lavet for 1 time og 11 minutter siden, kl. 01:59 UTC
Foreløbig gælder fra 25 på 03 UTC til 25 på 12 UTC
Vind 3 kt fra varierende retninger
Sigt 10 km eller mere
Nogle få skyer i en højde af 4500 ft
Sandsynlighed 30%
fra 25 på 03 UTC til 25 på 07 UTC
Sigt: 8000 m

TAF: EGLC 250159Z 2503/2512 VRB03KT 9999 FEW045 PROB30 2503/2507 8000

Vejrobservationer og prognoser fra mere end 4000 lufthavne (METAR og TAF).

De gule og røde prikker repræsenterer de meteorologiske stationer.

Flyt musen over at se navnet på stationen.

Så klik over at se vejr observationer og prognoser.

At skifte det kort: Klik på de grønne knapper med et sort kors for at zoome ind; på den grønne knap med en bindestreg for at zoome ud; eller på de grønne pile for tilstødende kort.


METAR-TAF: